Date,TemperatureHighF,TemperatureAvgF,TemperatureLowF,DewpointHighF,DewpointAvgF,DewpointLowF,HumidityHigh,HumidityAvg,HumidityLow,PressureMaxIn,PressureMinIn,WindSpeedMaxMPH,WindSpeedAvgMPH,GustSpeedMaxMPH,PrecipitationSumIn
2013-1-7,34.2,28.9,25.0,20.8,19.3,5.7,72,67,54,30.09,29.90,7,2,7,0.00
2013-1-8,34.0,27.5,10.9,25.7,19.5,3.7,82,72,56,29.99,29.74,17,4,17,0.01
2013-1-9,37.9,30.4,24.1,24.1,18.0,14.4,78,60,41,30.33,29.88,28,7,28,0.00
2013-1-10,40.1,31.6,24.3,31.1,21.4,14.9,91,67,46,30.29,29.72,13,5,13,0.20
2013-1-11,39.7,36.1,33.4,39.2,34.1,31.1,98,93,90,29.73,29.36,11,3,11,0.22
2013-1-12,38.5,15.0,3.6,37.9,2.5,-10.3,98,58,42,30.05,29.37,14,1,14,0.04
2013-1-13,7.9,4.2,1.2,-6.2,-8.6,-11.9,61,54,49,30.20,29.79,0,0,0,0.00
2013-1-14,17.1,7.4,3.2,-3.5,-6.4,-11.7,65,53,30,30.37,30.20,11,1,11,0.00
2013-1-15,35.4,20.2,2.1,12.2,5.9,-10.3,72,55,35,30.25,29.57,16,-1,16,0.00
2013-1-16,36.1,25.4,2.1,29.5,11.3,-16.1,87,58,25,30.20,29.64,21,6,21,0.01
2013-1-17,21.7,12.5,6.3,2.8,-8.2,-20.7,57,39,24,30.36,30.19,14,4,14,0.00
2013-1-18,43.0,29.3,15.6,28.4,18.9,3.0,79,65,50,30.26,29.70,15,5,15,0.00
2013-1-19,38.3,23.1,1.2,28.0,11.6,-17.5,85,63,37,30.18,29.65,39,10,39,0.06
2013-1-20,8.8,1.7,-3.5,-8.3,-17.5,-23.8,54,40,25,30.36,30.18,23,9,23,0.00
2013-1-21,-3.1,-7.4,-12.1,-21.8,-28.0,-33.7,43,35,26,30.30,30.22,23,9,23,0.00
2013-1-22,13.5,-4.3,-13.0,-13.2,-25.2,-33.0,45,35,23,30.35,29.94,19,3,19,0.00
2013-1-23,16.0,5.6,-6.5,1.4,-14.4,-32.4,64,40,21,30.56,30.11,24,6,24,0.00
2013-1-24,11.7,0.5,-8.3,-6.0,-21.0,-35.3,44,35,24,30.63,30.14,17,4,17,0.00
2013-1-25,18.9,12.8,4.5,3.2,-4.4,-32.1,62,46,34,30.35,29.91,27,8,27,0.00
2013-1-26,24.4,12.4,-8.3,5.5,-4.7,-34.8,56,46,25,30.60,30.09,14,4,14,0.00
2013-1-27,32.0,27.2,-8.3,27.5,16.7,-33.3,90,66,27,30.62,29.78,11,5,11,0.00
2013-1-28,35.1,30.6,2.5,32.2,27.3,-11.4,92,88,40,30.28,29.62,13,1,13,0.02
2013-1-29,94.1,31.1,20.8,29.7,23.8,-0.8,93,75,37,30.19,29.50,11,5,11,0.18
2013-1-30,27.0,16.9,7.9,17.4,4.8,-6.7,69,59,49,29.79,29.60,21,9,21,0.01
2013-1-31,7.9,0.6,-8.9,-6.5,-15.4,-27.8,54,46,38,30.22,29.57,114,11,114,0.00
2013-2-1,28.2,-3.7,-13.0,-6.9,-21.9,-29.6,63,42,23,30.27,29.53,16,4,16,0.00
2013-2-2,19.4,6.0,-0.6,7.7,-8.8,-16.2,64,51,30,30.14,29.62,14,2,14,0.00
2013-2-3,14.4,9.7,-3.8,1.6,-3.6,-29.2,66,55,40,30.25,29.76,22,5,22,0.00
2013-2-4,18.5,10.1,-12.5,3.4,-5.8,-29.2,66,49,23,30.26,29.72,8,3,8,0.00
2013-2-5,29.7,20.9,7.3,21.0,10.3,-15.9,81,64,37,30.14,29.62,14,4,14,0.00
2013-2-6,24.6,15.3,3.4,15.4,6.2,-7.8,74,67,60,30.08,29.90,11,4,11,0.00
2013-2-7,26.2,24.6,11.8,19.2,17.1,-10.8,83,73,43,30.22,29.70,16,6,16,0.00
2013-2-8,37.2,23.1,16.5,16.2,9.4,-3.8,72,57,28,30.35,29.63,10,4,10,0.76
2013-2-9,32.0,27.6,22.3,25.0,20.7,-5.6,84,75,67,30.20,29.91,17,-2,17,0.00
2013-2-10,32.9,29.7,24.8,30.4,25.2,14.7,92,83,65,30.22,29.25,17,4,17,0.00
2013-2-11,35.4,22.8,17.6,16.0,11.3,5.7,70,61,42,30.33,29.52,15,-19,15,0.00
2013-2-12,41.2,25.4,14.4,21.7,12.9,4.8,74,60,42,30.14,29.77,11,-4,11,0.14
2013-2-13,44.1,28.4,18.3,28.4,18.9,9.9,87,68,44,29.78,29.37,7,2,7,0.04
2013-2-14,32.2,25.4,15.8,28.8,9.3,-8.1,88,54,23,30.14,29.55,118,4,118,0.00
2013-2-15,19.8,12.3,5.9,-2.6,-7.1,-11.4,54,41,26,30.26,30.14,17,3,17,24.22
2013-2-16,42.6,17.3,6.8,28.2,5.4,-6.3,86,60,45,30.18,29.54,5,3,5,0.04
2013-2-17,32.5,25.1,7.5,23.2,10.9,-9.0,81,55,41,30.16,29.61,49,8,49,0.00
2013-2-18,32.7,23.1,8.1,27.0,12.6,-10.7,79,64,30,30.26,29.50,27,-2,27,0.00
2013-2-19,9.7,5.2,1.2,-5.1,-13.6,-18.8,54,41,27,30.31,29.76,24,11,24,0.01
2013-2-20,21.2,9.8,-2.0,19.6,-10.7,-22.2,49,39,25,30.41,29.97,9,-5,9,0.00
2013-2-21,23.7,15.6,6.1,4.8,-1.6,-8.5,53,46,33,30.41,30.06,13,4,13,0.00
2013-2-22,30.2,22.8,18.1,19.9,14.0,-17.7,82,69,51,30.25,29.82,16,4,18,0.04
2013-2-23,35.1,23.9,18.3,20.1,14.9,9.9,77,69,49,30.38,29.81,9,3,9,0.01
2013-2-24,42.4,24.4,10.8,19.6,11.3,2.8,75,58,35,30.07,29.93,8,2,8,0.00
2013-2-25,45.0,30.3,24.1,22.6,17.3,-29.6,74,59,38,30.08,30.01,6,1,6,0.00
2013-2-26,36.9,28.9,16.0,22.5,18.7,7.7,81,66,51,30.02,29.83,11,-5,11,0.00
2013-2-27,42.1,30.4,11.1,22.1,19.7,3.6,73,65,38,30.07,29.83,15,7,15,0.00
2013-2-28,43.9,26.8,22.6,28.9,13.0,9.3,74,55,39,30.19,30.00,97,7,97,0.00
2013-3-1,34.9,24.3,16.3,13.6,8.5,3.7,57,51,36,30.32,29.84,60,5,60,0.00
2013-3-2,39.7,22.1,9.0,20.5,1.8,-15.5,71,44,19,30.32,29.84,50,3,50,0.00
2013-3-3,34.9,25.2,16.7,9.5,0.1,-7.1,54,34,22,30.22,29.96,11,4,11,0.00
2013-3-4,33.3,24.3,13.6,18.3,8.9,-2.4,81,54,28,30.31,29.92,13,6,13,0.00
2013-3-5,34.9,25.2,9.0,21.2,16.8,-4.0,83,71,26,30.31,29.94,11,0,11,0.00
2013-3-6,34.5,24.3,17.8,11.1,8.3,-3.3,66,51,25,30.38,29.94,10,4,10,0.00
2013-3-7,25.5,23.0,21.9,16.9,14.5,3.9,78,70,54,30.35,29.94,9,6,9,0.00
2013-3-8,34.5,30.5,22.6,24.4,21.0,14.2,71,67,64,30.27,30.05,10,7,10,0.05
2013-3-9,35.6,34.3,31.8,32.9,31.4,25.0,91,89,74,30.37,29.68,12,4,12,0.48
2013-3-10,34.7,32.6,29.1,32.4,26.2,21.6,91,77,71,30.34,29.75,17,5,17,0.06
2013-3-11,29.3,26.9,22.5,21.6,17.2,12.2,73,67,58,30.29,29.72,15,7,15,0.00
2013-3-12,22.5,21.6,20.1,12.9,10.5,8.6,69,62,56,29.86,29.80,14,5,14,0.00
2013-3-18,16.3,13.8,10.9,2.8,0.8,-1.7,58,56,53,29.85,29.66,30,15,30,0.00
2013-3-19,24.3,13.4,6.1,-1.7,-7.8,-16.8,56,39,23,30.15,29.77,23,10,23,0.00
2013-3-20,23.7,12.9,4.6,-5.4,-10.8,-16.8,44,34,24,30.17,30.06,24,11,24,0.98
2013-3-21,34.2,18.7,5.2,2.7,-3.9,-9.6,55,38,22,30.10,29.67,21,3,21,0.00
2013-3-22,44.2,26.5,11.1,24.3,4.5,-15.7,98,41,21,30.16,29.87,17,2,17,0.00
2013-3-23,45.1,30.7,4.8,14.4,9.8,-14.4,65,43,21,30.17,30.04,15,3,15,0.00
2013-3-24,33.3,29.2,16.2,20.3,16.0,-8.9,70,57,50,30.08,29.95,49,5,49,0.00
2013-3-25,42.3,31.1,21.7,16.7,12.0,-0.9,59,46,24,30.19,30.00,15,2,15,0.01
2013-3-26,43.5,32.7,18.9,19.2,14.7,6.4,62,48,33,30.27,30.05,11,4,11,0.01
2013-3-27,47.5,32.1,21.9,19.9,13.8,7.0,72,50,21,30.31,29.97,9,2,9,0.00
2013-4-14,35.1,33.3,32.2,32.2,30.0,28.2,89,88,85,29.54,29.46,11,2,11,0.01
2013-4-15,39.9,35.2,31.3,31.8,25.4,21.4,89,68,58,30.10,29.52,17,7,17,0.04
2013-4-16,50.2,38.5,32.0,25.9,23.1,19.9,73,55,33,30.30,29.94,23,6,23,0.01
2013-4-17,40.5,36.6,32.9,32.7,26.2,21.2,90,67,53,30.30,29.49,20,6,20,0.11
2013-4-18,33.4,31.6,29.8,30.6,28.7,26.6,93,89,81,29.91,29.47,14,-1,14,0.18
2013-4-19,39.2,31.8,28.0,28.0,21.6,10.4,93,69,42,29.96,29.46,27,4,27,0.24
2013-4-20,50.0,35.1,21.7,11.3,5.7,-0.6,53,31,18,30.28,29.97,8,3,8,0.00
2013-4-21,49.3,39.7,32.4,44.8,32.1,11.3,92,75,39,30.29,30.00,21,6,21,0.11
2013-4-22,44.1,36.3,31.1,36.5,30.2,26.8,91,79,54,30.19,30.08,15,4,15,0.09
2013-4-23,44.4,35.2,27.9,28.9,22.4,11.8,93,63,30,30.13,30.03,17,3,17,0.20
2013-4-24,53.1,38.0,25.7,31.1,23.0,14.9,81,58,28,30.05,29.88,18,5,18,0.01
2013-4-25,57.4,42.4,31.8,30.0,24.4,15.6,80,53,22,30.18,29.96,20,6,20,0.00
2013-4-26,75.7,58.7,42.3,41.5,34.6,26.1,70,43,19,30.12,29.96,16,-2,16,0.01
2013-4-27,56.1,56.0,55.9,34.9,34.5,34.3,45,44,44,30.12,30.11,4,3,4,0.00
2013-12-3,44.8,31.2,30.2,29.3,28.7,26.2,96,91,78,29.96,29.71,11,7,11,0.00
2013-12-4,74.3,28.5,22.6,30.7,27.4,13.1,99,95,52,30.09,29.44,19,5,19,2.27
2013-12-6,-4.9,-6.2,-7.4,-21.6,-22.8,-24.0,44,43,43,30.58,30.54,13,7,13,0.00
2013-12-7,30.9,-4.5,-12.5,5.7,-25.6,-32.8,62,36,19,30.66,29.46,19,2,19,0.00
2013-12-8,11.8,5.2,-3.5,1.6,-6.0,-19.8,69,59,37,30.52,29.79,17,3,17,0.00
2013-12-9,9.5,1.5,-3.8,1.8,-14.9,-30.8,70,48,21,30.51,29.94,102,7,102,2.27
2013-12-11,-2.0,-2.2,-2.6,-20.0,-20.6,-22.5,41,40,39,30.55,30.06,9,3,9,0.00
2013-12-12,18.5,11.4,-11.6,3.7,-5.1,-31.4,59,47,29,30.66,30.10,8,2,9,0.00
2013-12-13,16.5,12.9,3.6,3.7,-1.2,-20.6,66,53,41,30.53,30.01,12,6,12,0.02
2013-12-14,16.7,8.8,-3.5,0.9,-4.5,-26.1,64,54,42,30.30,29.96,98,5,98,0.05
2013-12-15,17.6,-0.0,-2.4,1.0,-24.6,-31.5,51,31,19,30.24,30.04,102,4,102,0.00
2013-12-16,19.8,8.5,-1.5,15.4,-4.7,-29.6,83,57,24,30.22,29.86,11,3,11,0.74
2013-12-17,31.6,22.5,1.2,23.7,8.3,-18.0,82,55,35,30.19,29.83,27,9,27,0.74
2013-12-18,39.0,23.7,8.2,21.9,11.2,-31.5,78,60,40,30.10,29.61,19,4,19,1.16
2013-12-19,30.4,17.5,14.7,16.0,4.4,-25.4,73,57,41,30.04,29.76,101,6,101,1.16
2013-12-20,27.5,16.1,9.9,18.0,5.7,-2.9,75,63,36,30.06,29.81,14,2,20,1.13
2013-12-21,35.6,18.4,14.4,12.4,6.8,1.4,66,60,45,29.96,29.63,14,3,14,0.00
2013-12-22,19.9,14.3,4.8,10.2,4.2,-5.4,75,64,50,30.19,29.90,15,6,15,0.00
2013-12-23,15.4,3.0,1.6,-5.3,-6.8,-8.5,64,63,62,30.22,29.96,13,7,13,0.00